sensor_id;sensor_type;location;lat;lon;timestamp;P1;durP1;ratioP1;P2;durP2;ratioP2
16159;SDS011;8185;57.818;15.224;2023-02-17T00:01:35;24.23;;;11.03;;
16159;SDS011;8185;57.818;15.224;2023-02-17T00:04:02;16.87;;;8.33;;
16159;SDS011;8185;57.818;15.224;2023-02-17T00:06:30;42.23;;;19.47;;
16159;SDS011;8185;57.818;15.224;2023-02-17T00:08:57;15.63;;;9.67;;
16159;SDS011;8185;57.818;15.224;2023-02-17T00:11:26;22.57;;;10.23;;
16159;SDS011;8185;57.818;15.224;2023-02-17T00:13:53;43.97;;;27.97;;
16159;SDS011;8185;57.818;15.224;2023-02-17T00:16:23;18.13;;;9.07;;
16159;SDS011;8185;57.818;15.224;2023-02-17T00:18:52;30.83;;;15.83;;
16159;SDS011;8185;57.818;15.224;2023-02-17T00:21:21;23.07;;;10.37;;
16159;SDS011;8185;57.818;15.224;2023-02-17T00:23:51;20.47;;;10.30;;
16159;SDS011;8185;57.818;15.224;2023-02-17T00:26:19;22.67;;;9.83;;
16159;SDS011;8185;57.818;15.224;2023-02-17T00:28:47;18.13;;;8.73;;
16159;SDS011;8185;57.818;15.224;2023-02-17T00:31:16;17.93;;;10.23;;
16159;SDS011;8185;57.818;15.224;2023-02-17T00:33:46;20.00;;;10.77;;
16159;SDS011;8185;57.818;15.224;2023-02-17T00:36:14;25.43;;;10.80;;
16159;SDS011;8185;57.818;15.224;2023-02-17T00:38:43;20.37;;;10.13;;
16159;SDS011;8185;57.818;15.224;2023-02-17T00:41:11;19.03;;;9.20;;
16159;SDS011;8185;57.818;15.224;2023-02-17T00:43:38;21.00;;;9.43;;
16159;SDS011;8185;57.818;15.224;2023-02-17T00:46:05;21.50;;;8.63;;
16159;SDS011;8185;57.818;15.224;2023-02-17T00:48:32;17.63;;;9.20;;
16159;SDS011;8185;57.818;15.224;2023-02-17T00:51:01;22.10;;;9.67;;
16159;SDS011;8185;57.818;15.224;2023-02-17T00:53:29;17.90;;;8.60;;
16159;SDS011;8185;57.818;15.224;2023-02-17T00:55:56;16.43;;;7.47;;
16159;SDS011;8185;57.818;15.224;2023-02-17T00:58:23;20.73;;;8.20;;
16159;SDS011;8185;57.818;15.224;2023-02-17T01:00:50;14.20;;;7.30;;
16159;SDS011;8185;57.818;15.224;2023-02-17T01:03:17;17.67;;;7.97;;
16159;SDS011;8185;57.818;15.224;2023-02-17T01:05:45;21.67;;;8.40;;
16159;SDS011;8185;57.818;15.224;2023-02-17T01:08:15;15.43;;;7.73;;
16159;SDS011;8185;57.818;15.224;2023-02-17T01:10:44;16.40;;;7.67;;
16159;SDS011;8185;57.818;15.224;2023-02-17T01:13:13;16.17;;;7.80;;
16159;SDS011;8185;57.818;15.224;2023-02-17T01:15:42;17.33;;;8.97;;
16159;SDS011;8185;57.818;15.224;2023-02-17T01:18:12;22.10;;;9.17;;
16159;SDS011;8185;57.818;15.224;2023-02-17T01:20:40;13.67;;;8.17;;
16159;SDS011;8185;57.818;15.224;2023-02-17T01:23:08;14.27;;;7.37;;
16159;SDS011;8185;57.818;15.224;2023-02-17T01:25:37;13.57;;;6.53;;
16159;SDS011;8185;57.818;15.224;2023-02-17T01:28:06;16.37;;;7.57;;
16159;SDS011;8185;57.818;15.224;2023-02-17T01:30:34;19.97;;;7.37;;
16159;SDS011;8185;57.818;15.224;2023-02-17T01:33:01;14.70;;;6.70;;
16159;SDS011;8185;57.818;15.224;2023-02-17T01:35:28;15.23;;;7.30;;
16159;SDS011;8185;57.818;15.224;2023-02-17T01:37:55;16.07;;;7.90;;
16159;SDS011;8185;57.818;15.224;2023-02-17T01:40:23;14.03;;;7.13;;
16159;SDS011;8185;57.818;15.224;2023-02-17T01:42:52;16.43;;;7.03;;
16159;SDS011;8185;57.818;15.224;2023-02-17T01:45:36;12.00;;;5.87;;
16159;SDS011;8185;57.818;15.224;2023-02-17T01:48:08;14.30;;;6.53;;
16159;SDS011;8185;57.818;15.224;2023-02-17T01:50:38;15.13;;;7.43;;
16159;SDS011;8185;57.818;15.224;2023-02-17T01:53:09;13.73;;;6.60;;
16159;SDS011;8185;57.818;15.224;2023-02-17T01:55:39;14.23;;;7.50;;
16159;SDS011;8185;57.818;15.224;2023-02-17T01:58:10;13.80;;;7.50;;
16159;SDS011;8185;57.818;15.224;2023-02-17T02:00:39;12.97;;;7.37;;
16159;SDS011;8185;57.818;15.224;2023-02-17T02:03:08;14.37;;;7.57;;
16159;SDS011;8185;57.818;15.224;2023-02-17T02:05:38;16.23;;;7.50;;
16159;SDS011;8185;57.818;15.224;2023-02-17T02:08:08;17.03;;;7.03;;
16159;SDS011;8185;57.818;15.224;2023-02-17T02:10:37;14.40;;;6.67;;
16159;SDS011;8185;57.818;15.224;2023-02-17T02:13:05;15.67;;;7.63;;
16159;SDS011;8185;57.818;15.224;2023-02-17T02:15:36;20.13;;;7.60;;
16159;SDS011;8185;57.818;15.224;2023-02-17T02:18:13;16.90;;;7.50;;
16159;SDS011;8185;57.818;15.224;2023-02-17T02:24:00;16.87;;;7.33;;
16159;SDS011;8185;57.818;15.224;2023-02-17T02:32:48;12.77;;;6.70;;
16159;SDS011;8185;57.818;15.224;2023-02-17T02:35:26;14.90;;;6.93;;
16159;SDS011;8185;57.818;15.224;2023-02-17T02:38:00;14.93;;;7.27;;
16159;SDS011;8185;57.818;15.224;2023-02-17T02:40:33;17.57;;;8.40;;
16159;SDS011;8185;57.818;15.224;2023-02-17T02:43:05;16.30;;;7.83;;
16159;SDS011;8185;57.818;15.224;2023-02-17T02:45:32;14.97;;;7.93;;
16159;SDS011;8185;57.818;15.224;2023-02-17T02:48:01;20.40;;;7.87;;
16159;SDS011;8185;57.818;15.224;2023-02-17T02:50:34;14.00;;;7.73;;
16159;SDS011;8185;57.818;15.224;2023-02-17T02:53:35;15.87;;;7.17;;
16159;SDS011;8185;57.818;15.224;2023-02-17T02:56:17;17.00;;;7.57;;
16159;SDS011;8185;57.818;15.224;2023-02-17T02:58:55;19.83;;;7.40;;
16159;SDS011;8185;57.818;15.224;2023-02-17T03:01:32;22.20;;;8.63;;
16159;SDS011;8185;57.818;15.224;2023-02-17T03:04:08;19.93;;;8.50;;
16159;SDS011;8185;57.818;15.224;2023-02-17T03:06:42;15.23;;;7.77;;
16159;SDS011;8185;57.818;15.224;2023-02-17T03:09:16;18.93;;;8.30;;
16159;SDS011;8185;57.818;15.224;2023-02-17T03:11:46;18.13;;;9.20;;
16159;SDS011;8185;57.818;15.224;2023-02-17T03:14:15;23.67;;;9.00;;
16159;SDS011;8185;57.818;15.224;2023-02-17T03:16:44;24.77;;;9.87;;
16159;SDS011;8185;57.818;15.224;2023-02-17T03:19:13;21.53;;;9.00;;
16159;SDS011;8185;57.818;15.224;2023-02-17T03:21:44;22.60;;;9.30;;
16159;SDS011;8185;57.818;15.224;2023-02-17T03:24:15;17.53;;;9.43;;
16159;SDS011;8185;57.818;15.224;2023-02-17T03:26:42;21.87;;;9.63;;
16159;SDS011;8185;57.818;15.224;2023-02-17T03:29:10;20.83;;;9.33;;
16159;SDS011;8185;57.818;15.224;2023-02-17T03:31:37;19.83;;;9.17;;
16159;SDS011;8185;57.818;15.224;2023-02-17T03:34:05;22.00;;;9.53;;
16159;SDS011;8185;57.818;15.224;2023-02-17T03:36:34;21.20;;;10.90;;
16159;SDS011;8185;57.818;15.224;2023-02-17T03:39:01;17.87;;;9.70;;
16159;SDS011;8185;57.818;15.224;2023-02-17T03:41:28;25.00;;;10.10;;
16159;SDS011;8185;57.818;15.224;2023-02-17T03:43:56;22.07;;;10.63;;
16159;SDS011;8185;57.818;15.224;2023-02-17T03:46:23;21.47;;;11.10;;
16159;SDS011;8185;57.818;15.224;2023-02-17T03:48:50;19.30;;;9.50;;
16159;SDS011;8185;57.818;15.224;2023-02-17T03:51:18;19.60;;;10.03;;
16159;SDS011;8185;57.818;15.224;2023-02-17T03:53:48;19.37;;;9.47;;
16159;SDS011;8185;57.818;15.224;2023-02-17T03:56:16;18.57;;;10.07;;
16159;SDS011;8185;57.818;15.224;2023-02-17T03:58:44;18.83;;;9.83;;
16159;SDS011;8185;57.818;15.224;2023-02-17T04:01:11;24.43;;;11.20;;
16159;SDS011;8185;57.818;15.224;2023-02-17T04:03:39;20.73;;;9.50;;
16159;SDS011;8185;57.818;15.224;2023-02-17T04:06:07;19.80;;;8.83;;
16159;SDS011;8185;57.818;15.224;2023-02-17T04:08:35;16.57;;;8.47;;
16159;SDS011;8185;57.818;15.224;2023-02-17T04:11:05;19.87;;;9.77;;
16159;SDS011;8185;57.818;15.224;2023-02-17T04:13:33;20.53;;;10.17;;
16159;SDS011;8185;57.818;15.224;2023-02-17T04:16:00;18.47;;;9.37;;
16159;SDS011;8185;57.818;15.224;2023-02-17T04:18:29;17.03;;;9.67;;
16159;SDS011;8185;57.818;15.224;2023-02-17T04:20:57;17.83;;;9.67;;
16159;SDS011;8185;57.818;15.224;2023-02-17T04:23:24;22.60;;;10.53;;
16159;SDS011;8185;57.818;15.224;2023-02-17T04:25:51;18.93;;;9.07;;
16159;SDS011;8185;57.818;15.224;2023-02-17T04:28:20;20.27;;;9.67;;
16159;SDS011;8185;57.818;15.224;2023-02-17T04:30:48;18.40;;;9.33;;
16159;SDS011;8185;57.818;15.224;2023-02-17T04:33:16;17.30;;;9.53;;
16159;SDS011;8185;57.818;15.224;2023-02-17T04:35:44;19.47;;;9.83;;
16159;SDS011;8185;57.818;15.224;2023-02-17T04:38:13;17.13;;;9.30;;
16159;SDS011;8185;57.818;15.224;2023-02-17T04:40:40;21.53;;;9.80;;
16159;SDS011;8185;57.818;15.224;2023-02-17T04:43:08;18.10;;;9.73;;
16159;SDS011;8185;57.818;15.224;2023-02-17T04:45:37;22.13;;;9.60;;
16159;SDS011;8185;57.818;15.224;2023-02-17T04:48:04;24.83;;;10.57;;
16159;SDS011;8185;57.818;15.224;2023-02-17T04:50:31;21.10;;;10.13;;
16159;SDS011;8185;57.818;15.224;2023-02-17T04:52:59;23.23;;;11.07;;
16159;SDS011;8185;57.818;15.224;2023-02-17T04:55:26;26.93;;;10.63;;
16159;SDS011;8185;57.818;15.224;2023-02-17T04:57:53;27.10;;;11.67;;
16159;SDS011;8185;57.818;15.224;2023-02-17T05:00:21;22.03;;;11.03;;
16159;SDS011;8185;57.818;15.224;2023-02-17T05:02:49;20.53;;;11.27;;
16159;SDS011;8185;57.818;15.224;2023-02-17T05:05:16;21.27;;;10.27;;
16159;SDS011;8185;57.818;15.224;2023-02-17T05:07:45;23.20;;;11.83;;
16159;SDS011;8185;57.818;15.224;2023-02-17T05:10:13;24.40;;;12.87;;
16159;SDS011;8185;57.818;15.224;2023-02-17T05:12:40;24.73;;;11.43;;
16159;SDS011;8185;57.818;15.224;2023-02-17T05:15:08;22.27;;;11.57;;
16159;SDS011;8185;57.818;15.224;2023-02-17T05:17:36;29.30;;;11.60;;
16159;SDS011;8185;57.818;15.224;2023-02-17T05:20:05;24.97;;;11.83;;
16159;SDS011;8185;57.818;15.224;2023-02-17T05:22:34;25.13;;;12.53;;
16159;SDS011;8185;57.818;15.224;2023-02-17T05:25:01;27.80;;;11.67;;
16159;SDS011;8185;57.818;15.224;2023-02-17T05:27:29;25.47;;;12.40;;
16159;SDS011;8185;57.818;15.224;2023-02-17T05:29:56;27.20;;;12.57;;
16159;SDS011;8185;57.818;15.224;2023-02-17T05:32:23;24.57;;;13.57;;
16159;SDS011;8185;57.818;15.224;2023-02-17T05:34:50;24.53;;;11.83;;
16159;SDS011;8185;57.818;15.224;2023-02-17T05:37:19;32.93;;;12.23;;
16159;SDS011;8185;57.818;15.224;2023-02-17T05:39:46;26.93;;;13.27;;
16159;SDS011;8185;57.818;15.224;2023-02-17T05:42:13;28.37;;;13.23;;
16159;SDS011;8185;57.818;15.224;2023-02-17T05:44:40;29.40;;;13.70;;
16159;SDS011;8185;57.818;15.224;2023-02-17T05:47:08;28.57;;;12.63;;
16159;SDS011;8185;57.818;15.224;2023-02-17T05:49:35;29.17;;;12.80;;
16159;SDS011;8185;57.818;15.224;2023-02-17T05:52:02;33.83;;;13.67;;
16159;SDS011;8185;57.818;15.224;2023-02-17T05:54:31;27.90;;;12.70;;
16159;SDS011;8185;57.818;15.224;2023-02-17T05:56:58;31.67;;;13.97;;
16159;SDS011;8185;57.818;15.224;2023-02-17T05:59:25;31.50;;;13.77;;
16159;SDS011;8185;57.818;15.224;2023-02-17T06:01:53;34.90;;;12.50;;
16159;SDS011;8185;57.818;15.224;2023-02-17T06:04:20;34.10;;;13.83;;
16159;SDS011;8185;57.818;15.224;2023-02-17T06:06:47;37.73;;;13.93;;
16159;SDS011;8185;57.818;15.224;2023-02-17T06:09:14;30.63;;;13.33;;
16159;SDS011;8185;57.818;15.224;2023-02-17T06:11:43;34.93;;;13.87;;
16159;SDS011;8185;57.818;15.224;2023-02-17T06:14:10;27.50;;;12.37;;
16159;SDS011;8185;57.818;15.224;2023-02-17T06:16:37;31.63;;;13.30;;
16159;SDS011;8185;57.818;15.224;2023-02-17T06:19:05;31.63;;;13.10;;
16159;SDS011;8185;57.818;15.224;2023-02-17T06:21:32;32.00;;;13.33;;
16159;SDS011;8185;57.818;15.224;2023-02-17T06:23:59;28.60;;;12.57;;
16159;SDS011;8185;57.818;15.224;2023-02-17T06:26:26;33.13;;;13.67;;
16159;SDS011;8185;57.818;15.224;2023-02-17T06:28:55;38.80;;;13.80;;
16159;SDS011;8185;57.818;15.224;2023-02-17T06:31:22;29.90;;;13.20;;
16159;SDS011;8185;57.818;15.224;2023-02-17T06:33:49;34.13;;;15.27;;
16159;SDS011;8185;57.818;15.224;2023-02-17T06:36:17;36.03;;;13.43;;
16159;SDS011;8185;57.818;15.224;2023-02-17T06:38:44;36.93;;;14.10;;
16159;SDS011;8185;57.818;15.224;2023-02-17T06:41:11;37.13;;;15.00;;
16159;SDS011;8185;57.818;15.224;2023-02-17T06:43:38;31.03;;;14.00;;
16159;SDS011;8185;57.818;15.224;2023-02-17T06:46:07;35.93;;;14.30;;
16159;SDS011;8185;57.818;15.224;2023-02-17T06:48:34;35.40;;;15.63;;
16159;SDS011;8185;57.818;15.224;2023-02-17T06:51:01;31.40;;;15.10;;
16159;SDS011;8185;57.818;15.224;2023-02-17T06:53:29;32.70;;;14.47;;
16159;SDS011;8185;57.818;15.224;2023-02-17T06:55:56;31.80;;;14.13;;
16159;SDS011;8185;57.818;15.224;2023-02-17T06:58:23;34.97;;;14.70;;
16159;SDS011;8185;57.818;15.224;2023-02-17T07:00:50;34.40;;;14.70;;
16159;SDS011;8185;57.818;15.224;2023-02-17T07:03:19;33.00;;;14.30;;
16159;SDS011;8185;57.818;15.224;2023-02-17T07:05:46;31.00;;;12.97;;
16159;SDS011;8185;57.818;15.224;2023-02-17T07:08:13;31.70;;;14.27;;
16159;SDS011;8185;57.818;15.224;2023-02-17T07:10:40;33.40;;;13.70;;
16159;SDS011;8185;57.818;15.224;2023-02-17T07:13:08;29.93;;;13.87;;
16159;SDS011;8185;57.818;15.224;2023-02-17T07:15:35;28.03;;;12.23;;
16159;SDS011;8185;57.818;15.224;2023-02-17T07:18:02;31.10;;;13.43;;
16159;SDS011;8185;57.818;15.224;2023-02-17T07:20:31;28.97;;;13.20;;
16159;SDS011;8185;57.818;15.224;2023-02-17T07:22:59;27.53;;;12.60;;
16159;SDS011;8185;57.818;15.224;2023-02-17T07:25:27;27.80;;;12.10;;
16159;SDS011;8185;57.818;15.224;2023-02-17T07:27:54;29.40;;;12.43;;
16159;SDS011;8185;57.818;15.224;2023-02-17T07:30:21;32.03;;;11.63;;
16159;SDS011;8185;57.818;15.224;2023-02-17T07:32:48;27.37;;;11.17;;
16159;SDS011;8185;57.818;15.224;2023-02-17T07:35:16;23.23;;;11.73;;
16159;SDS011;8185;57.818;15.224;2023-02-17T07:37:44;32.93;;;13.53;;
16159;SDS011;8185;57.818;15.224;2023-02-17T07:40:12;26.73;;;11.70;;
16159;SDS011;8185;57.818;15.224;2023-02-17T07:42:39;25.73;;;11.63;;
16159;SDS011;8185;57.818;15.224;2023-02-17T07:45:07;23.60;;;11.60;;
16159;SDS011;8185;57.818;15.224;2023-02-17T07:47:34;24.73;;;11.90;;
16159;SDS011;8185;57.818;15.224;2023-02-17T07:50:01;30.40;;;12.57;;
16159;SDS011;8185;57.818;15.224;2023-02-17T07:52:28;24.63;;;11.00;;
16159;SDS011;8185;57.818;15.224;2023-02-17T07:54:57;26.37;;;12.03;;
16159;SDS011;8185;57.818;15.224;2023-02-17T07:57:24;21.50;;;10.50;;
16159;SDS011;8185;57.818;15.224;2023-02-17T07:59:52;21.70;;;10.60;;
16159;SDS011;8185;57.818;15.224;2023-02-17T08:02:19;23.67;;;10.97;;
16159;SDS011;8185;57.818;15.224;2023-02-17T08:04:46;21.40;;;10.47;;
16159;SDS011;8185;57.818;15.224;2023-02-17T08:07:14;25.63;;;10.77;;
16159;SDS011;8185;57.818;15.224;2023-02-17T08:09:41;19.40;;;10.13;;
16159;SDS011;8185;57.818;15.224;2023-02-17T08:12:27;22.60;;;10.20;;
16159;SDS011;8185;57.818;15.224;2023-02-17T08:15:11;22.23;;;10.40;;
16159;SDS011;8185;57.818;15.224;2023-02-17T08:17:39;22.53;;;10.17;;
16159;SDS011;8185;57.818;15.224;2023-02-17T08:20:06;22.13;;;10.07;;
16159;SDS011;8185;57.818;15.224;2023-02-17T08:22:34;19.03;;;8.97;;
16159;SDS011;8185;57.818;15.224;2023-02-17T08:25:01;22.00;;;9.50;;
16159;SDS011;8185;57.818;15.224;2023-02-17T08:27:31;25.03;;;10.70;;
16159;SDS011;8185;57.818;15.224;2023-02-17T08:29:58;22.37;;;9.67;;
16159;SDS011;8185;57.818;15.224;2023-02-17T08:32:25;18.77;;;10.03;;
16159;SDS011;8185;57.818;15.224;2023-02-17T08:34:53;19.83;;;10.57;;
16159;SDS011;8185;57.818;15.224;2023-02-17T08:37:22;14.70;;;8.07;;
16159;SDS011;8185;57.818;15.224;2023-02-17T08:39:49;17.50;;;9.27;;
16159;SDS011;8185;57.818;15.224;2023-02-17T08:42:16;17.13;;;8.77;;
16159;SDS011;8185;57.818;15.224;2023-02-17T08:44:45;22.23;;;9.53;;
16159;SDS011;8185;57.818;15.224;2023-02-17T08:47:13;19.63;;;9.30;;
16159;SDS011;8185;57.818;15.224;2023-02-17T08:49:40;19.27;;;8.47;;
16159;SDS011;8185;57.818;15.224;2023-02-17T08:52:07;15.83;;;8.87;;
16159;SDS011;8185;57.818;15.224;2023-02-17T08:54:34;16.43;;;8.83;;
16159;SDS011;8185;57.818;15.224;2023-02-17T08:57:02;16.93;;;8.23;;
16159;SDS011;8185;57.818;15.224;2023-02-17T08:59:30;14.90;;;7.87;;
16159;SDS011;8185;57.818;15.224;2023-02-17T09:01:58;15.30;;;8.03;;
16159;SDS011;8185;57.818;15.224;2023-02-17T09:04:25;19.37;;;8.80;;
16159;SDS011;8185;57.818;15.224;2023-02-17T09:06:53;12.70;;;7.17;;
16159;SDS011;8185;57.818;15.224;2023-02-17T09:09:22;14.80;;;7.43;;
16159;SDS011;8185;57.818;15.224;2023-02-17T09:11:52;12.47;;;6.77;;
16159;SDS011;8185;57.818;15.224;2023-02-17T09:14:20;11.93;;;6.70;;
16159;SDS011;8185;57.818;15.224;2023-02-17T09:16:48;14.67;;;7.93;;
16159;SDS011;8185;57.818;15.224;2023-02-17T09:19:17;13.50;;;7.53;;
16159;SDS011;8185;57.818;15.224;2023-02-17T09:21:45;18.30;;;7.77;;
16159;SDS011;8185;57.818;15.224;2023-02-17T09:24:13;14.70;;;7.47;;
16159;SDS011;8185;57.818;15.224;2023-02-17T09:26:40;13.93;;;7.70;;
16159;SDS011;8185;57.818;15.224;2023-02-17T09:29:07;13.60;;;7.27;;
16159;SDS011;8185;57.818;15.224;2023-02-17T09:31:35;14.77;;;6.70;;
16159;SDS011;8185;57.818;15.224;2023-02-17T09:34:03;12.47;;;5.67;;
16159;SDS011;8185;57.818;15.224;2023-02-17T09:36:33;14.90;;;6.00;;
16159;SDS011;8185;57.818;15.224;2023-02-17T09:39:04;8.07;;;5.07;;
16159;SDS011;8185;57.818;15.224;2023-02-17T09:41:33;11.03;;;5.57;;
16159;SDS011;8185;57.818;15.224;2023-02-17T09:44:05;10.33;;;6.07;;
16159;SDS011;8185;57.818;15.224;2023-02-17T09:46:34;9.77;;;5.53;;
16159;SDS011;8185;57.818;15.224;2023-02-17T09:49:07;10.60;;;5.73;;
16159;SDS011;8185;57.818;15.224;2023-02-17T09:51:41;9.40;;;5.23;;
16159;SDS011;8185;57.818;15.224;2023-02-17T09:54:12;9.20;;;5.57;;
16159;SDS011;8185;57.818;15.224;2023-02-17T09:56:44;10.90;;;6.00;;
16159;SDS011;8185;57.818;15.224;2023-02-17T09:59:14;8.47;;;5.60;;
16159;SDS011;8185;57.818;15.224;2023-02-17T10:01:45;9.67;;;6.03;;
16159;SDS011;8185;57.818;15.224;2023-02-17T10:04:15;7.67;;;5.37;;
16159;SDS011;8185;57.818;15.224;2023-02-17T10:06:48;7.97;;;5.33;;
16159;SDS011;8185;57.818;15.224;2023-02-17T10:09:21;9.67;;;5.90;;
16159;SDS011;8185;57.818;15.224;2023-02-17T10:11:54;5.77;;;4.33;;
16159;SDS011;8185;57.818;15.224;2023-02-17T10:14:28;7.50;;;4.50;;
16159;SDS011;8185;57.818;15.224;2023-02-17T10:16:59;6.33;;;4.67;;
16159;SDS011;8185;57.818;15.224;2023-02-17T10:19:31;5.60;;;3.87;;
16159;SDS011;8185;57.818;15.224;2023-02-17T10:22:04;6.53;;;4.20;;
16159;SDS011;8185;57.818;15.224;2023-02-17T10:24:36;5.43;;;4.03;;
16159;SDS011;8185;57.818;15.224;2023-02-17T10:30:17;4.80;;;3.37;;
16159;SDS011;8185;57.818;15.224;2023-02-17T10:32:56;5.30;;;3.17;;
16159;SDS011;8185;57.818;15.224;2023-02-17T10:35:29;4.53;;;3.10;;
16159;SDS011;8185;57.818;15.224;2023-02-17T10:38:23;3.90;;;3.10;;
16159;SDS011;8185;57.818;15.224;2023-02-17T10:40:59;3.63;;;2.73;;
16159;SDS011;8185;57.818;15.224;2023-02-17T10:43:30;4.13;;;3.00;;
16159;SDS011;8185;57.818;15.224;2023-02-17T10:45:58;3.90;;;2.80;;
16159;SDS011;8185;57.818;15.224;2023-02-17T10:48:30;3.20;;;2.43;;
16159;SDS011;8185;57.818;15.224;2023-02-17T10:51:01;2.80;;;2.50;;
16159;SDS011;8185;57.818;15.224;2023-02-17T10:53:30;2.60;;;1.90;;
16159;SDS011;8185;57.818;15.224;2023-02-17T10:56:00;2.97;;;1.93;;
16159;SDS011;8185;57.818;15.224;2023-02-17T10:58:32;2.60;;;2.30;;
16159;SDS011;8185;57.818;15.224;2023-02-17T11:01:03;2.23;;;1.90;;
16159;SDS011;8185;57.818;15.224;2023-02-17T11:03:32;2.27;;;1.90;;
16159;SDS011;8185;57.818;15.224;2023-02-17T11:06:01;2.47;;;2.20;;
16159;SDS011;8185;57.818;15.224;2023-02-17T11:08:33;2.60;;;1.87;;
16159;SDS011;8185;57.818;15.224;2023-02-17T11:11:03;1.97;;;1.67;;
16159;SDS011;8185;57.818;15.224;2023-02-17T11:13:34;2.73;;;2.20;;
16159;SDS011;8185;57.818;15.224;2023-02-17T11:16:04;2.20;;;1.77;;
16159;SDS011;8185;57.818;15.224;2023-02-17T11:18:32;2.10;;;1.50;;
16159;SDS011;8185;57.818;15.224;2023-02-17T11:21:03;2.03;;;1.77;;
16159;SDS011;8185;57.818;15.224;2023-02-17T11:23:33;2.83;;;1.70;;
16159;SDS011;8185;57.818;15.224;2023-02-17T11:26:02;2.50;;;1.83;;
16159;SDS011;8185;57.818;15.224;2023-02-17T11:28:35;2.10;;;1.50;;
16159;SDS011;8185;57.818;15.224;2023-02-17T11:31:02;2.00;;;1.80;;
16159;SDS011;8185;57.818;15.224;2023-02-17T11:33:32;2.47;;;1.90;;
16159;SDS011;8185;57.818;15.224;2023-02-17T11:36:01;2.90;;;1.63;;
16159;SDS011;8185;57.818;15.224;2023-02-17T11:38:39;1.50;;;1.40;;
16159;SDS011;8185;57.818;15.224;2023-02-17T11:41:10;1.50;;;1.30;;
16159;SDS011;8185;57.818;15.224;2023-02-17T11:43:38;1.20;;;1.10;;
16159;SDS011;8185;57.818;15.224;2023-02-17T11:46:20;2.13;;;1.10;;
16159;SDS011;8185;57.818;15.224;2023-02-17T11:49:01;1.30;;;1.20;;
16159;SDS011;8185;57.818;15.224;2023-02-17T11:51:47;1.17;;;1.07;;
16159;SDS011;8185;57.818;15.224;2023-02-17T11:54:25;0.90;;;0.90;;
16159;SDS011;8185;57.818;15.224;2023-02-17T11:57:04;1.37;;;1.27;;
16159;SDS011;8185;57.818;15.224;2023-02-17T11:59:49;1.27;;;1.17;;
16159;SDS011;8185;57.818;15.224;2023-02-17T12:02:30;1.00;;;0.90;;
16159;SDS011;8185;57.818;15.224;2023-02-17T12:05:11;1.60;;;1.20;;
16159;SDS011;8185;57.818;15.224;2023-02-17T12:07:49;1.10;;;1.00;;
16159;SDS011;8185;57.818;15.224;2023-02-17T12:10:29;1.40;;;1.10;;
16159;SDS011;8185;57.818;15.224;2023-02-17T12:13:17;0.93;;;0.90;;
16159;SDS011;8185;57.818;15.224;2023-02-17T12:15:59;0.90;;;0.80;;
16159;SDS011;8185;57.818;15.224;2023-02-17T12:18:41;1.07;;;0.87;;
16159;SDS011;8185;57.818;15.224;2023-02-17T12:21:22;1.13;;;0.73;;
16159;SDS011;8185;57.818;15.224;2023-02-17T12:24:01;1.10;;;0.80;;
16159;SDS011;8185;57.818;15.224;2023-02-17T12:26:42;1.00;;;0.90;;
16159;SDS011;8185;57.818;15.224;2023-02-17T12:29:17;0.60;;;0.60;;
16159;SDS011;8185;57.818;15.224;2023-02-17T12:32:11;0.50;;;0.50;;
16159;SDS011;8185;57.818;15.224;2023-02-17T12:34:52;0.70;;;0.60;;
16159;SDS011;8185;57.818;15.224;2023-02-17T12:37:24;0.93;;;0.70;;
16159;SDS011;8185;57.818;15.224;2023-02-17T12:39:56;0.70;;;0.70;;
16159;SDS011;8185;57.818;15.224;2023-02-17T12:42:31;0.70;;;0.60;;
16159;SDS011;8185;57.818;15.224;2023-02-17T12:45:03;0.50;;;0.50;;
16159;SDS011;8185;57.818;15.224;2023-02-17T12:47:34;0.53;;;0.50;;
16159;SDS011;8185;57.818;15.224;2023-02-17T12:50:13;0.50;;;0.50;;
16159;SDS011;8185;57.818;15.224;2023-02-17T12:52:45;0.50;;;0.50;;
16159;SDS011;8185;57.818;15.224;2023-02-17T12:55:19;0.60;;;0.60;;
16159;SDS011;8185;57.818;15.224;2023-02-17T12:57:49;0.53;;;0.50;;
16159;SDS011;8185;57.818;15.224;2023-02-17T13:00:22;0.40;;;0.40;;
16159;SDS011;8185;57.818;15.224;2023-02-17T13:02:56;2.23;;;0.50;;
16159;SDS011;8185;57.818;15.224;2023-02-17T13:05:25;0.50;;;0.50;;
16159;SDS011;8185;57.818;15.224;2023-02-17T13:07:56;0.40;;;0.40;;
16159;SDS011;8185;57.818;15.224;2023-02-17T13:10:28;0.53;;;0.53;;
16159;SDS011;8185;57.818;15.224;2023-02-17T13:13:00;0.50;;;0.40;;
16159;SDS011;8185;57.818;15.224;2023-02-17T13:15:31;1.07;;;0.57;;
16159;SDS011;8185;57.818;15.224;2023-02-17T13:18:01;0.63;;;0.60;;
16159;SDS011;8185;57.818;15.224;2023-02-17T13:20:37;0.40;;;0.40;;
16159;SDS011;8185;57.818;15.224;2023-02-17T13:23:31;0.40;;;0.40;;
16159;SDS011;8185;57.818;15.224;2023-02-17T13:26:14;2.00;;;0.50;;
16159;SDS011;8185;57.818;15.224;2023-02-17T13:29:09;0.30;;;0.30;;
16159;SDS011;8185;57.818;15.224;2023-02-17T13:31:59;0.43;;;0.43;;
16159;SDS011;8185;57.818;15.224;2023-02-17T13:34:29;0.60;;;0.40;;
16159;SDS011;8185;57.818;15.224;2023-02-17T13:36:59;0.37;;;0.37;;
16159;SDS011;8185;57.818;15.224;2023-02-17T13:39:39;0.30;;;0.30;;
16159;SDS011;8185;57.818;15.224;2023-02-17T13:45:10;0.60;;;0.50;;
16159;SDS011;8185;57.818;15.224;2023-02-17T13:47:39;0.40;;;0.40;;
16159;SDS011;8185;57.818;15.224;2023-02-17T13:52:52;0.30;;;0.30;;
16159;SDS011;8185;57.818;15.224;2023-02-17T13:55:20;0.40;;;0.40;;
16159;SDS011;8185;57.818;15.224;2023-02-17T13:57:50;0.40;;;0.40;;
16159;SDS011;8185;57.818;15.224;2023-02-17T14:00:21;0.30;;;0.27;;
16159;SDS011;8185;57.818;15.224;2023-02-17T14:02:50;0.30;;;0.30;;
16159;SDS011;8185;57.818;15.224;2023-02-17T14:05:20;0.40;;;0.30;;
16159;SDS011;8185;57.818;15.224;2023-02-17T14:07:52;0.30;;;0.30;;
16159;SDS011;8185;57.818;15.224;2023-02-17T14:10:23;0.20;;;0.20;;
16159;SDS011;8185;57.818;15.224;2023-02-17T14:12:52;0.30;;;0.30;;
16159;SDS011;8185;57.818;15.224;2023-02-17T14:15:22;0.40;;;0.40;;
16159;SDS011;8185;57.818;15.224;2023-02-17T14:17:51;0.40;;;0.40;;
16159;SDS011;8185;57.818;15.224;2023-02-17T14:20:25;0.30;;;0.30;;
16159;SDS011;8185;57.818;15.224;2023-02-17T14:22:58;0.30;;;0.30;;
16159;SDS011;8185;57.818;15.224;2023-02-17T14:25:31;0.87;;;0.47;;
16159;SDS011;8185;57.818;15.224;2023-02-17T14:28:00;0.30;;;0.30;;
16159;SDS011;8185;57.818;15.224;2023-02-17T14:30:29;0.30;;;0.30;;
16159;SDS011;8185;57.818;15.224;2023-02-17T14:33:02;1.80;;;0.33;;
16159;SDS011;8185;57.818;15.224;2023-02-17T14:35:31;0.30;;;0.30;;
16159;SDS011;8185;57.818;15.224;2023-02-17T14:38:08;0.30;;;0.30;;
16159;SDS011;8185;57.818;15.224;2023-02-17T14:40:46;0.57;;;0.30;;
16159;SDS011;8185;57.818;15.224;2023-02-17T14:43:13;0.20;;;0.20;;
16159;SDS011;8185;57.818;15.224;2023-02-17T14:45:42;0.60;;;0.30;;
16159;SDS011;8185;57.818;15.224;2023-02-17T14:48:09;0.30;;;0.30;;
16159;SDS011;8185;57.818;15.224;2023-02-17T14:50:37;0.20;;;0.20;;
16159;SDS011;8185;57.818;15.224;2023-02-17T14:53:09;0.77;;;0.50;;
16159;SDS011;8185;57.818;15.224;2023-02-17T14:55:41;0.50;;;0.50;;
16159;SDS011;8185;57.818;15.224;2023-02-17T14:58:15;0.50;;;0.50;;
16159;SDS011;8185;57.818;15.224;2023-02-17T15:00:46;0.40;;;0.40;;
16159;SDS011;8185;57.818;15.224;2023-02-17T15:03:15;1.03;;;0.50;;
16159;SDS011;8185;57.818;15.224;2023-02-17T15:05:43;0.40;;;0.40;;
16159;SDS011;8185;57.818;15.224;2023-02-17T15:08:11;0.77;;;0.43;;
16159;SDS011;8185;57.818;15.224;2023-02-17T15:10:40;0.50;;;0.40;;
16159;SDS011;8185;57.818;15.224;2023-02-17T15:13:09;1.13;;;0.60;;